PILOTS ONLINE: 679    ATC ONLINE: 166

KSTS

Charles M. Schulz Sonoma County Airport

Location

IATA STS
City Santa Rosa
Country  United States
Latitude 38° 30' 32" N
Longitude 122° 48' 46" W
Elevation 128 ft
Type Medium Airport

Map

Weather

METAR
2014/08/30 13:53
KSTS 301353Z 00000KT 7SM BCFG FEW250 11/11 A2989 RMK AO2 SLP115 T01110106
TAF
2014/08/30 12:21
TAF KSTS 301120Z 3012/3112 15004KT P6SM SCT200 
     FM301300 VRB03KT 1/2SM FG OVC003 
     FM301600 VRB04KT P6SM SCT005 BKN200 
     FM301900 19007KT P6SM SCT200 
     FM310300 VRB03KT P6SM SCT200

Runways

01/19 5002 ft / 100 ft
14/32 5115 ft / 150 ft

Outbound flights

Callsign Flying to Pilot ATD/STD ETA Aircraft

Inbound flights

Callsign Flying from Pilot ATD ETA Aircraft